createdAt,value
2022-12-03T00:01:42.632Z,0.60
2022-12-03T00:03:47.715Z,0.60
2022-12-03T00:05:52.849Z,0.60
2022-12-03T00:07:58.151Z,0.60
2022-12-03T00:10:03.292Z,0.60
2022-12-03T00:12:09.238Z,0.60
2022-12-03T00:14:16.799Z,0.70
2022-12-03T00:16:21.850Z,0.60
2022-12-03T00:18:26.951Z,0.60
2022-12-03T00:20:32.013Z,0.60
2022-12-03T00:22:38.341Z,0.60
2022-12-03T00:24:43.782Z,0.60
2022-12-03T00:26:49.402Z,0.50
2022-12-03T00:28:55.207Z,0.50
2022-12-03T00:31:02.915Z,0.50
2022-12-03T00:33:07.946Z,0.50
2022-12-03T00:35:13.455Z,0.60
2022-12-03T00:37:19.383Z,0.50
2022-12-03T00:39:24.529Z,0.50
2022-12-03T00:41:29.540Z,0.50
2022-12-03T00:43:34.547Z,0.50
2022-12-03T00:45:41.858Z,0.50
2022-12-03T00:47:49.875Z,0.50
2022-12-03T00:49:54.719Z,0.40
2022-12-03T00:51:59.746Z,0.40
2022-12-03T00:54:04.831Z,0.40
2022-12-03T00:56:11.132Z,0.40
2022-12-03T00:58:16.128Z,0.40
2022-12-03T01:00:24.999Z,0.30
2022-12-03T01:02:30.028Z,0.40
2022-12-03T01:04:38.368Z,0.30
2022-12-03T01:06:43.588Z,0.30
2022-12-03T01:08:48.567Z,0.30
2022-12-03T01:10:53.761Z,0.30
2022-12-03T01:12:58.751Z,0.30
2022-12-03T01:15:03.747Z,0.30
2022-12-03T01:17:10.056Z,0.30
2022-12-03T01:19:17.203Z,0.30
2022-12-03T01:21:24.831Z,0.20
2022-12-03T01:23:29.868Z,0.20
2022-12-03T01:25:34.971Z,0.20
2022-12-03T01:27:40.320Z,0.20
2022-12-03T01:29:45.415Z,0.30
2022-12-03T01:32:02.892Z,0.20
2022-12-03T01:34:08.591Z,0.20
2022-12-03T01:36:14.151Z,0.10
2022-12-03T01:38:21.843Z,0.20
2022-12-03T01:40:27.060Z,0.10
2022-12-03T01:42:36.085Z,0.20
2022-12-03T01:44:43.989Z,0.20
2022-12-03T01:46:49.701Z,0.20
2022-12-03T01:48:58.080Z,0.20
2022-12-03T01:51:03.474Z,0.20
2022-12-03T01:53:08.880Z,0.20
2022-12-03T01:55:22.479Z,0.20
2022-12-03T01:57:30.900Z,0.20
2022-12-03T01:59:40.490Z,0.20
2022-12-03T02:01:46.877Z,0.20
2022-12-03T02:03:52.040Z,0.30
2022-12-03T02:05:57.651Z,0.30
2022-12-03T02:08:04.061Z,0.20
2022-12-03T02:10:11.021Z,0.30
2022-12-03T02:12:22.454Z,0.30
2022-12-03T02:14:27.765Z,0.30
2022-12-03T02:16:33.958Z,0.30
2022-12-03T02:18:40.286Z,0.40
2022-12-03T02:20:53.971Z,0.40
2022-12-03T02:23:08.087Z,0.30
2022-12-03T02:25:20.918Z,0.30
2022-12-03T02:27:26.490Z,0.30
2022-12-03T02:29:31.860Z,0.30
2022-12-03T02:31:37.979Z,0.30
2022-12-03T02:33:43.442Z,0.30
2022-12-03T02:35:49.068Z,0.30
2022-12-03T02:37:59.386Z,0.30
2022-12-03T02:40:12.359Z,0.20
2022-12-03T02:42:33.994Z,0.30
2022-12-03T02:44:39.176Z,0.20
2022-12-03T02:46:44.812Z,0.20
2022-12-03T02:51:00.674Z,0.20
2022-12-03T02:53:12.089Z,0.20
2022-12-03T02:55:20.497Z,0.20
2022-12-03T02:57:28.526Z,0.20
2022-12-03T02:59:33.374Z,0.20
2022-12-03T03:01:38.832Z,0.20
2022-12-03T03:03:44.354Z,0.20
2022-12-03T03:05:51.815Z,0.20
2022-12-03T03:08:00.963Z,0.30
2022-12-03T03:10:09.557Z,0.20
2022-12-03T03:12:14.690Z,0.30
2022-12-03T03:14:22.532Z,0.30
2022-12-03T03:16:27.789Z,0.20
2022-12-03T03:18:33.102Z,0.20
2022-12-03T03:20:38.395Z,0.20
2022-12-03T03:22:46.511Z,0.20
2022-12-03T03:24:51.882Z,0.20
2022-12-03T03:26:57.393Z,0.30
2022-12-03T03:29:04.522Z,0.30
2022-12-03T03:31:16.946Z,0.30
2022-12-03T03:33:22.267Z,0.20
2022-12-03T03:35:28.520Z,0.30
2022-12-03T03:37:33.731Z,0.20
2022-12-03T03:39:39.180Z,0.20
2022-12-03T03:41:45.537Z,0.20
2022-12-03T03:43:52.970Z,0.20
2022-12-03T03:45:58.255Z,0.20
2022-12-03T03:48:07.207Z,0.20
2022-12-03T03:50:16.184Z,0.20
2022-12-03T03:52:21.855Z,0.20
2022-12-03T03:54:27.627Z,0.30
2022-12-03T03:56:32.968Z,0.30
2022-12-03T03:58:38.172Z,0.20
2022-12-03T04:00:47.679Z,0.30
2022-12-03T04:02:53.151Z,0.30
2022-12-03T04:05:01.492Z,0.30
2022-12-03T04:07:06.602Z,0.30
2022-12-03T04:09:11.780Z,0.30
2022-12-03T04:11:29.364Z,0.30
2022-12-03T04:13:31.747Z,0.30
2022-12-03T04:15:37.354Z,0.30
2022-12-03T04:17:43.028Z,0.30
2022-12-03T04:19:45.447Z,0.30
2022-12-03T04:22:05.756Z,0.30
2022-12-03T04:24:13.139Z,0.20
2022-12-03T04:26:30.621Z,0.20
2022-12-03T04:28:48.788Z,0.20
2022-12-03T04:30:53.680Z,0.30
2022-12-03T04:33:11.325Z,0.20
2022-12-03T04:35:35.058Z,0.30
2022-12-03T04:37:42.633Z,0.30
2022-12-03T04:39:47.925Z,0.30
2022-12-03T04:41:50.342Z,0.30
2022-12-03T04:44:07.834Z,0.40
2022-12-03T04:46:13.604Z,0.30
2022-12-03T04:48:18.789Z,0.30
2022-12-03T04:50:24.686Z,0.40
2022-12-03T04:52:29.766Z,0.40
2022-12-03T04:54:41.450Z,0.30
2022-12-03T04:56:47.027Z,0.30
2022-12-03T04:58:52.365Z,0.30
2022-12-03T05:00:57.363Z,0.30
2022-12-03T05:03:02.915Z,0.30
2022-12-03T05:05:11.234Z,0.30
2022-12-03T05:07:16.031Z,0.30
2022-12-03T05:09:21.961Z,0.30
2022-12-03T05:11:29.702Z,0.40
2022-12-03T05:13:34.705Z,0.30
2022-12-03T05:15:40.417Z,0.30
2022-12-03T05:17:45.868Z,0.30
2022-12-03T05:20:03.631Z,0.30
2022-12-03T05:22:08.485Z,0.40
2022-12-03T05:24:13.853Z,0.40
2022-12-03T05:26:19.273Z,0.40
2022-12-03T05:28:26.948Z,0.40
2022-12-03T05:30:32.062Z,0.40
2022-12-03T05:32:38.898Z,0.40
2022-12-03T05:34:45.040Z,0.40
2022-12-03T05:36:50.097Z,0.30
2022-12-03T05:38:55.119Z,0.30
2022-12-03T05:41:02.021Z,0.30
2022-12-03T05:43:04.857Z,0.30
2022-12-03T05:45:14.050Z,0.30
2022-12-03T05:47:19.092Z,0.20
2022-12-03T05:49:24.093Z,0.30
2022-12-03T05:51:29.768Z,0.30
2022-12-03T05:53:35.406Z,0.30
2022-12-03T05:55:41.136Z,0.30
2022-12-03T05:57:46.926Z,0.30
2022-12-03T05:59:51.925Z,0.30
2022-12-03T06:01:59.561Z,0.20
2022-12-03T06:04:04.721Z,0.20
2022-12-03T06:06:10.204Z,0.30
2022-12-03T06:08:16.221Z,0.20
2022-12-03T06:10:25.592Z,0.30
2022-12-03T06:12:30.906Z,0.20
2022-12-03T06:14:36.406Z,0.20
2022-12-03T06:16:41.728Z,0.20
2022-12-03T06:18:49.364Z,0.20
2022-12-03T06:20:54.412Z,0.20
2022-12-03T06:22:59.591Z,0.20
2022-12-03T06:25:06.932Z,0.30
2022-12-03T06:27:12.982Z,0.20
2022-12-03T06:29:18.056Z,0.30
2022-12-03T06:31:23.535Z,0.20
2022-12-03T06:33:29.011Z,0.20
2022-12-03T06:35:36.864Z,0.20
2022-12-03T06:37:42.211Z,0.20
2022-12-03T06:39:47.623Z,0.20
2022-12-03T06:41:52.749Z,0.20
2022-12-03T06:43:58.109Z,0.30
2022-12-03T06:46:03.155Z,0.30
2022-12-03T06:48:09.276Z,0.30
2022-12-03T06:50:15.965Z,0.30
2022-12-03T06:52:24.118Z,0.30
2022-12-03T06:54:29.946Z,0.40
2022-12-03T06:56:40.397Z,0.30
2022-12-03T06:58:51.079Z,0.30
2022-12-03T07:00:56.442Z,0.30
2022-12-03T07:03:01.524Z,0.30
2022-12-03T07:05:09.104Z,0.30
2022-12-03T07:07:14.479Z,0.30
2022-12-03T07:09:22.043Z,0.30
2022-12-03T07:11:40.497Z,0.30
2022-12-03T07:13:47.074Z,0.30
2022-12-03T07:15:52.414Z,0.30
2022-12-03T07:17:57.857Z,0.30
2022-12-03T07:20:04.829Z,0.30
2022-12-03T07:22:10.748Z,0.30
2022-12-03T07:24:16.142Z,0.30
2022-12-03T07:26:23.762Z,0.30
2022-12-03T07:28:28.892Z,0.40
2022-12-03T07:30:34.380Z,0.30
2022-12-03T07:32:39.422Z,0.30
2022-12-03T07:34:44.494Z,0.40
2022-12-03T07:36:50.355Z,0.30
2022-12-03T07:38:55.793Z,0.30
2022-12-03T07:41:00.792Z,0.30
2022-12-03T07:43:09.004Z,0.30
2022-12-03T07:45:14.528Z,0.40
2022-12-03T07:47:20.089Z,0.30
2022-12-03T07:49:27.093Z,0.30
2022-12-03T07:51:32.594Z,0.40
2022-12-03T07:53:39.079Z,0.40
2022-12-03T07:55:44.138Z,0.30
2022-12-03T07:57:50.318Z,0.40
2022-12-03T07:59:57.929Z,0.40
2022-12-03T08:02:03.022Z,0.40
2022-12-03T08:04:09.564Z,0.40
2022-12-03T08:06:17.906Z,0.40
2022-12-03T08:08:22.945Z,0.40
2022-12-03T08:10:29.140Z,0.40
2022-12-03T08:12:42.724Z,0.40
2022-12-03T08:14:47.845Z,0.40
2022-12-03T08:16:55.849Z,0.50
2022-12-03T08:19:00.912Z,0.50
2022-12-03T08:21:08.940Z,0.50
2022-12-03T08:23:18.380Z,0.40
2022-12-03T08:25:26.432Z,0.50
2022-12-03T08:27:31.530Z,0.50
2022-12-03T08:29:36.939Z,0.40
2022-12-03T08:31:42.418Z,0.50
2022-12-03T08:33:52.732Z,0.50
2022-12-03T08:35:58.369Z,0.50
2022-12-03T08:38:12.375Z,0.50
2022-12-03T08:40:25.855Z,0.50
2022-12-03T08:42:42.387Z,0.50
2022-12-03T08:44:48.112Z,0.50
2022-12-03T08:47:02.752Z,0.50
2022-12-03T08:49:12.270Z,0.50
2022-12-03T08:51:25.702Z,0.60
2022-12-03T08:53:39.565Z,0.60
2022-12-03T08:55:51.740Z,0.60
2022-12-03T08:57:56.946Z,0.60
2022-12-03T09:00:06.737Z,0.60
2022-12-03T09:02:23.668Z,0.60
2022-12-03T09:04:41.779Z,0.60
2022-12-03T09:06:51.532Z,0.60
2022-12-03T09:08:56.567Z,0.60
2022-12-03T09:11:01.995Z,0.60
2022-12-03T09:13:07.042Z,0.60
2022-12-03T09:15:13.390Z,0.70
2022-12-03T09:17:18.508Z,0.70
2022-12-03T09:19:24.154Z,0.60
2022-12-03T09:21:31.767Z,0.70
2022-12-03T09:23:37.110Z,0.60
2022-12-03T09:25:42.099Z,0.70
2022-12-03T09:27:47.267Z,0.70
2022-12-03T09:29:52.424Z,0.70
2022-12-03T09:31:57.921Z,0.70
2022-12-03T09:34:03.583Z,0.70
2022-12-03T09:36:09.713Z,0.80
2022-12-03T09:38:17.513Z,0.80
2022-12-03T09:40:23.438Z,0.70
2022-12-03T09:42:29.044Z,0.80
2022-12-03T09:44:37.004Z,0.80
2022-12-03T09:46:42.500Z,0.80
2022-12-03T09:48:47.850Z,0.80
2022-12-03T09:50:53.777Z,0.70
2022-12-03T09:53:03.381Z,0.80
2022-12-03T09:55:20.767Z,0.80
2022-12-03T09:57:25.931Z,0.80
2022-12-03T09:59:35.225Z,0.80
2022-12-03T10:01:40.659Z,0.80
2022-12-03T10:03:50.595Z,0.80
2022-12-03T10:05:57.767Z,0.80
2022-12-03T10:08:08.873Z,0.80
2022-12-03T10:10:24.005Z,0.90
2022-12-03T10:12:29.054Z,0.80
2022-12-03T10:14:34.383Z,0.90
2022-12-03T10:16:40.343Z,0.90
2022-12-03T10:18:50.364Z,0.90
2022-12-03T10:20:56.437Z,0.90
2022-12-03T10:23:01.693Z,0.90
2022-12-03T10:25:12.509Z,0.90
2022-12-03T10:27:33.608Z,0.90
2022-12-03T10:29:39.349Z,1.00
2022-12-03T10:31:44.351Z,1.00
2022-12-03T10:33:50.151Z,1.00
2022-12-03T10:35:55.150Z,1.00
2022-12-03T10:38:05.754Z,1.00
2022-12-03T10:40:14.343Z,1.00
2022-12-03T10:42:21.277Z,1.00
2022-12-03T10:44:31.073Z,1.00
2022-12-03T10:46:36.222Z,1.10
2022-12-03T10:48:41.582Z,1.10
2022-12-03T10:50:53.562Z,1.00
2022-12-03T10:52:59.139Z,1.10
2022-12-03T10:55:04.377Z,1.10
2022-12-03T10:57:11.934Z,1.00
2022-12-03T10:59:22.782Z,1.10
2022-12-03T11:01:30.639Z,1.00
2022-12-03T11:03:39.475Z,1.00
2022-12-03T11:05:45.072Z,1.00
2022-12-03T11:07:50.450Z,1.00
2022-12-03T11:09:59.230Z,1.10
2022-12-03T11:12:08.692Z,1.10
2022-12-03T11:14:19.618Z,1.10
2022-12-03T11:19:47.616Z,1.10
2022-12-03T11:22:29.976Z,1.10
2022-12-03T11:24:36.696Z,1.00
2022-12-03T11:27:23.688Z,1.00
2022-12-03T11:29:58.684Z,1.10
2022-12-03T11:32:04.209Z,1.10
2022-12-03T11:34:54.012Z,1.20
2022-12-03T11:37:28.388Z,1.10
2022-12-03T11:40:05.108Z,1.10
2022-12-03T11:42:40.111Z,1.00
2022-12-03T11:44:45.240Z,1.00
2022-12-03T11:46:50.815Z,1.00
2022-12-03T11:49:00.528Z,1.10
2022-12-03T11:51:17.819Z,1.10
2022-12-03T11:53:25.632Z,1.10
2022-12-03T11:55:35.720Z,1.10
2022-12-03T11:57:43.313Z,1.10
2022-12-03T12:00:02.508Z,1.10
2022-12-03T12:02:23.052Z,1.10
2022-12-03T12:04:35.512Z,1.10
2022-12-03T12:06:53.159Z,1.20
2022-12-03T12:09:03.898Z,1.20
2022-12-03T12:11:21.578Z,1.10
2022-12-03T12:13:58.230Z,1.10
2022-12-03T12:16:05.147Z,1.10
2022-12-03T12:18:44.386Z,1.00
2022-12-03T12:20:49.387Z,1.10
2022-12-03T12:22:58.410Z,1.10
2022-12-03T12:25:05.199Z,1.10
2022-12-03T12:27:13.643Z,1.10
2022-12-03T12:29:18.636Z,1.00
2022-12-03T12:31:23.715Z,1.10
2022-12-03T12:33:28.753Z,1.10
2022-12-03T12:35:36.864Z,1.10
2022-12-03T12:37:58.091Z,1.10
2022-12-03T12:40:17.936Z,1.10
2022-12-03T12:42:35.092Z,1.00
2022-12-03T12:44:40.415Z,1.00
2022-12-03T12:46:48.813Z,1.00
2022-12-03T12:48:59.332Z,1.00
2022-12-03T12:51:15.118Z,1.00
2022-12-03T12:53:25.699Z,1.10
2022-12-03T12:55:33.321Z,1.00
2022-12-03T12:57:38.614Z,1.00
2022-12-03T12:59:43.861Z,1.00
2022-12-03T13:01:52.215Z,1.00
2022-12-03T13:03:57.723Z,1.00
2022-12-03T13:06:04.544Z,0.90
2022-12-03T13:08:25.531Z,1.00
2022-12-03T13:10:43.421Z,0.90
2022-12-03T13:12:49.016Z,1.00
2022-12-03T13:15:02.972Z,1.00
2022-12-03T13:17:18.617Z,1.00
2022-12-03T13:19:27.127Z,1.00
2022-12-03T13:21:40.953Z,1.00
2022-12-03T13:23:45.947Z,1.00
2022-12-03T13:26:03.796Z,1.00
2022-12-03T13:28:16.671Z,0.90
2022-12-03T13:30:28.775Z,1.00
2022-12-03T13:32:36.788Z,0.90
2022-12-03T13:34:41.604Z,0.90
2022-12-03T13:36:55.485Z,1.00
2022-12-03T13:39:02.320Z,0.90
2022-12-03T13:41:38.786Z,0.90
2022-12-03T13:43:44.515Z,0.90
2022-12-03T13:45:51.117Z,0.90
2022-12-03T13:48:01.073Z,0.90
2022-12-03T13:50:23.511Z,0.90
2022-12-03T13:52:29.435Z,0.90
2022-12-03T13:54:37.888Z,0.90
2022-12-03T13:56:45.896Z,0.90
2022-12-03T13:58:50.927Z,0.90
2022-12-03T14:00:56.332Z,0.90
2022-12-03T14:03:02.880Z,0.90
2022-12-03T14:05:09.084Z,0.90
2022-12-03T14:07:14.128Z,0.90
2022-12-03T14:09:19.627Z,0.90
2022-12-03T14:11:37.161Z,0.90
2022-12-03T14:13:44.779Z,1.00
2022-12-03T14:15:49.738Z,0.90
2022-12-03T14:17:54.755Z,0.90
2022-12-03T14:20:01.019Z,0.90
2022-12-03T14:22:07.916Z,0.90
2022-12-03T14:24:13.131Z,0.80
2022-12-03T14:26:18.170Z,0.80
2022-12-03T14:28:23.306Z,0.80
2022-12-03T14:30:33.298Z,0.80
2022-12-03T14:32:38.344Z,0.80
2022-12-03T14:34:44.526Z,0.70
2022-12-03T14:36:49.875Z,0.80
2022-12-03T14:38:54.828Z,0.80
2022-12-03T14:41:00.005Z,0.70
2022-12-03T14:43:03.339Z,0.80
2022-12-03T14:45:10.028Z,0.80
2022-12-03T14:47:19.999Z,0.80
2022-12-03T14:49:25.097Z,0.80
2022-12-03T14:51:30.084Z,0.80
2022-12-03T14:53:35.114Z,0.80
2022-12-03T14:55:40.171Z,0.70
2022-12-03T14:57:45.404Z,0.70
2022-12-03T14:59:50.717Z,0.80
2022-12-03T15:01:55.912Z,0.70
2022-12-03T15:04:03.572Z,0.80
2022-12-03T15:06:09.352Z,0.80
2022-12-03T15:08:14.422Z,0.70
2022-12-03T15:10:20.329Z,0.80
2022-12-03T15:12:25.340Z,0.80
2022-12-03T15:14:31.730Z,0.80
2022-12-03T15:16:37.203Z,0.80
2022-12-03T15:18:42.227Z,0.80
2022-12-03T15:20:49.816Z,0.70
2022-12-03T15:22:54.747Z,0.70
2022-12-03T15:25:02.467Z,0.70
2022-12-03T15:27:08.187Z,0.70
2022-12-03T15:29:13.513Z,0.70
2022-12-03T15:31:21.499Z,0.70
2022-12-03T15:33:26.578Z,0.70
2022-12-03T15:35:31.642Z,0.70
2022-12-03T15:37:39.180Z,0.70
2022-12-03T15:39:48.504Z,0.70
2022-12-03T15:41:54.066Z,0.70
2022-12-03T15:44:02.274Z,0.70
2022-12-03T15:46:07.476Z,0.60
2022-12-03T15:48:14.065Z,0.60
2022-12-03T15:50:20.878Z,0.70
2022-12-03T15:52:25.823Z,0.70
2022-12-03T15:54:33.603Z,0.70
2022-12-03T15:56:38.568Z,0.70
2022-12-03T15:58:44.386Z,0.70
2022-12-03T16:00:49.688Z,0.70
2022-12-03T16:02:55.567Z,0.70
2022-12-03T16:05:00.628Z,0.70
2022-12-03T16:07:05.801Z,0.70
2022-12-03T16:09:11.399Z,0.70
2022-12-03T16:11:18.999Z,0.70
2022-12-03T16:13:23.949Z,0.70
2022-12-03T16:15:28.942Z,0.70
2022-12-03T16:17:33.893Z,0.70
2022-12-03T16:19:38.851Z,0.70
2022-12-03T16:21:43.883Z,0.70
2022-12-03T16:23:48.923Z,0.70
2022-12-03T16:25:54.300Z,0.70
2022-12-03T16:28:01.845Z,0.60
2022-12-03T16:30:11.105Z,0.60
2022-12-03T16:32:16.057Z,0.60
2022-12-03T16:34:21.354Z,0.60
2022-12-03T16:36:26.392Z,0.60
2022-12-03T16:38:31.929Z,0.50
2022-12-03T16:40:36.915Z,0.60
2022-12-03T16:42:42.119Z,0.60
2022-12-03T16:45:11.392Z,0.50
2022-12-03T16:47:16.412Z,0.60
2022-12-03T16:49:21.655Z,0.60
2022-12-03T16:51:28.251Z,0.60
2022-12-03T16:53:33.282Z,0.60
2022-12-03T16:55:39.044Z,0.60
2022-12-03T16:57:44.016Z,0.60
2022-12-03T16:59:51.717Z,0.60
2022-12-03T17:01:56.948Z,0.60
2022-12-03T17:04:02.021Z,0.60
2022-12-03T17:06:08.117Z,0.70
2022-12-03T17:08:17.403Z,0.70
2022-12-03T17:10:22.556Z,0.70
2022-12-03T17:12:42.188Z,0.70
2022-12-03T17:14:55.892Z,0.60
2022-12-03T17:17:01.159Z,0.70
2022-12-03T17:19:06.250Z,0.70
2022-12-03T17:21:11.779Z,0.70
2022-12-03T17:23:18.011Z,0.60
2022-12-03T17:25:23.527Z,0.60
2022-12-03T17:27:29.539Z,0.70
2022-12-03T17:29:35.020Z,0.70
2022-12-03T17:31:43.159Z,0.70
2022-12-03T17:33:48.183Z,0.70
2022-12-03T17:35:56.252Z,0.70
2022-12-03T17:38:02.579Z,0.70
2022-12-03T17:40:10.509Z,0.60
2022-12-03T17:42:15.921Z,0.60
2022-12-03T17:44:21.479Z,0.60
2022-12-03T17:46:27.040Z,0.60
2022-12-03T17:48:35.070Z,0.70
2022-12-03T17:50:40.110Z,0.70
2022-12-03T17:52:45.132Z,0.70
2022-12-03T17:55:10.013Z,0.70
2022-12-03T17:57:15.180Z,0.70
2022-12-03T17:59:21.400Z,0.60
2022-12-03T18:01:26.872Z,0.60
2022-12-03T18:03:34.786Z,0.70
2022-12-03T18:05:39.808Z,0.60
2022-12-03T18:07:45.178Z,0.60
2022-12-03T18:09:50.235Z,0.70
2022-12-03T18:11:55.779Z,0.60
2022-12-03T18:14:01.570Z,0.60
2022-12-03T18:16:07.027Z,0.60
2022-12-03T18:18:12.489Z,0.70
2022-12-03T18:20:20.752Z,0.70
2022-12-03T18:22:27.942Z,0.70
2022-12-03T18:24:33.175Z,0.60
2022-12-03T18:26:38.433Z,0.70
2022-12-03T18:28:43.836Z,0.70
2022-12-03T18:30:52.511Z,0.60
2022-12-03T18:32:57.968Z,0.70
2022-12-03T18:35:03.232Z,0.70
2022-12-03T18:37:14.007Z,0.70
2022-12-03T18:39:28.938Z,0.60
2022-12-03T18:41:34.004Z,0.60
2022-12-03T18:43:39.509Z,0.60
2022-12-03T18:45:45.473Z,0.70
2022-12-03T18:47:50.582Z,0.70
2022-12-03T18:49:56.558Z,0.60
2022-12-03T18:52:01.912Z,0.70
2022-12-03T18:54:15.588Z,0.70
2022-12-03T18:56:22.048Z,0.60
2022-12-03T18:58:27.489Z,0.70
2022-12-03T19:00:35.969Z,0.70
2022-12-03T19:05:07.830Z,0.70
2022-12-03T19:07:14.408Z,0.70
2022-12-03T19:09:22.038Z,0.60
2022-12-03T19:11:27.117Z,0.60
2022-12-03T19:13:32.178Z,0.70
2022-12-03T19:15:39.754Z,0.70
2022-12-03T19:17:44.819Z,0.70
2022-12-03T19:19:50.359Z,0.60
2022-12-03T19:21:55.430Z,0.70
2022-12-03T19:24:23.091Z,0.70
2022-12-03T19:26:28.371Z,0.70
2022-12-03T19:28:33.372Z,0.70
2022-12-03T19:30:40.153Z,0.70
2022-12-03T19:32:45.830Z,0.70
2022-12-03T19:34:51.762Z,0.70
2022-12-03T19:36:56.723Z,0.70
2022-12-03T19:39:03.136Z,0.70
2022-12-03T19:41:12.289Z,0.70
2022-12-03T19:43:21.133Z,0.70
2022-12-03T19:45:26.524Z,0.70
2022-12-03T19:47:33.043Z,0.70
2022-12-03T19:49:38.112Z,0.70
2022-12-03T19:51:43.059Z,0.70
2022-12-03T19:53:48.164Z,0.70
2022-12-03T19:55:53.259Z,0.70
2022-12-03T19:57:58.727Z,0.70
2022-12-03T20:00:08.739Z,0.70
2022-12-03T20:02:18.655Z,0.70
2022-12-03T20:04:24.442Z,0.70
2022-12-03T20:06:33.467Z,0.70
2022-12-03T20:08:39.847Z,0.80
2022-12-03T20:10:45.637Z,0.80
2022-12-03T20:12:51.105Z,0.80
2022-12-03T20:14:56.079Z,0.80
2022-12-03T20:17:03.865Z,0.70
2022-12-03T20:19:11.222Z,0.70
2022-12-03T20:21:18.544Z,0.70
2022-12-03T20:23:23.513Z,0.80
2022-12-03T20:25:28.771Z,0.70
2022-12-03T20:27:34.551Z,0.80
2022-12-03T20:29:40.888Z,0.80
2022-12-03T20:31:47.033Z,0.80
2022-12-03T20:33:57.895Z,0.70
2022-12-03T20:36:03.220Z,0.80
2022-12-03T20:38:08.565Z,0.70
2022-12-03T20:40:15.058Z,0.70
2022-12-03T20:42:20.428Z,0.70
2022-12-03T20:44:25.857Z,0.70
2022-12-03T20:46:33.716Z,0.70
2022-12-03T20:48:41.663Z,0.70
2022-12-03T20:50:49.271Z,0.70
2022-12-03T20:53:22.570Z,0.60
2022-12-03T20:55:19.371Z,0.70
2022-12-03T20:57:24.313Z,0.70
2022-12-03T20:59:29.661Z,0.70
2022-12-03T21:01:36.009Z,0.70
2022-12-03T21:03:42.132Z,0.70
2022-12-03T21:05:49.791Z,0.70
2022-12-03T21:07:54.784Z,0.70
2022-12-03T21:10:00.104Z,0.70
2022-12-03T21:12:05.214Z,0.70
2022-12-03T21:14:11.591Z,0.70
2022-12-03T21:16:34.218Z,0.70
2022-12-03T21:18:46.982Z,0.70
2022-12-03T21:20:54.757Z,0.70
2022-12-03T21:22:59.719Z,0.70
2022-12-03T21:25:04.821Z,0.70
2022-12-03T21:27:09.753Z,0.70
2022-12-03T21:29:16.115Z,0.70
2022-12-03T21:31:25.581Z,0.70
2022-12-03T21:33:31.746Z,0.70
2022-12-03T21:35:41.381Z,0.70
2022-12-03T21:37:49.025Z,0.70
2022-12-03T21:39:54.248Z,0.60
2022-12-03T21:42:22.328Z,0.60
2022-12-03T21:44:24.721Z,0.60
2022-12-03T21:47:09.562Z,0.60
2022-12-03T21:48:56.315Z,0.60
2022-12-03T21:51:03.692Z,0.60
2022-12-03T21:53:11.478Z,0.50
2022-12-03T21:55:16.895Z,0.50
2022-12-03T21:57:22.111Z,0.60
2022-12-03T21:59:27.096Z,0.60
2022-12-03T22:01:33.231Z,0.50
2022-12-03T22:03:38.330Z,0.50
2022-12-03T22:05:43.707Z,0.50
2022-12-03T22:07:49.619Z,0.50
2022-12-03T22:09:58.239Z,0.50
2022-12-03T22:12:03.801Z,0.50
2022-12-03T22:14:09.918Z,0.50
2022-12-03T22:16:19.469Z,0.50
2022-12-03T22:18:24.622Z,0.50
2022-12-03T22:20:30.199Z,0.50
2022-12-03T22:22:36.127Z,0.50
2022-12-03T22:24:42.070Z,0.50
2022-12-03T22:26:52.252Z,0.50
2022-12-03T22:29:00.718Z,0.50
2022-12-03T22:31:08.978Z,0.50
2022-12-03T22:33:14.073Z,0.50
2022-12-03T22:35:19.421Z,0.50
2022-12-03T22:37:24.448Z,0.50
2022-12-03T22:39:29.403Z,0.50
2022-12-03T22:41:34.368Z,0.50
2022-12-03T22:43:42.108Z,0.50
2022-12-03T22:45:47.211Z,0.50
2022-12-03T22:47:52.215Z,0.50
2022-12-03T22:49:57.380Z,0.50
2022-12-03T22:52:02.536Z,0.50
2022-12-03T22:54:08.257Z,0.50
2022-12-03T22:56:13.675Z,0.50
2022-12-03T22:58:18.657Z,0.50
2022-12-03T23:00:33.048Z,0.50
2022-12-03T23:02:38.481Z,0.60
2022-12-03T23:04:43.452Z,0.60
2022-12-03T23:06:49.111Z,0.60
2022-12-03T23:08:54.544Z,0.60
2022-12-03T23:11:03.632Z,0.60
2022-12-03T23:13:11.009Z,0.60
2022-12-03T23:15:16.073Z,0.60
2022-12-03T23:17:23.653Z,0.60
2022-12-03T23:19:28.623Z,0.60
2022-12-03T23:21:37.090Z,0.60
2022-12-03T23:23:42.756Z,0.60
2022-12-03T23:25:58.279Z,0.50
2022-12-03T23:28:03.276Z,0.50
2022-12-03T23:30:10.882Z,0.60
2022-12-03T23:32:15.899Z,0.60
2022-12-03T23:34:23.906Z,0.60
2022-12-03T23:36:33.038Z,0.60
2022-12-03T23:38:38.014Z,0.60
2022-12-03T23:40:47.859Z,0.60
2022-12-03T23:42:53.352Z,0.60
2022-12-03T23:44:58.328Z,0.60
2022-12-03T23:47:03.530Z,0.60
2022-12-03T23:49:08.668Z,0.50
2022-12-03T23:51:20.623Z,0.60
2022-12-03T23:53:25.730Z,0.60
2022-12-03T23:55:30.772Z,0.60
2022-12-03T23:57:36.511Z,0.60
2022-12-03T23:59:42.350Z,0.60
